createdAt,value
2023-03-28T00:01:12.824Z,21.46
2023-03-28T00:03:41.019Z,21.86
2023-03-28T00:06:11.047Z,22.15
2023-03-28T00:08:41.272Z,22.08
2023-03-28T00:11:11.661Z,21.73
2023-03-28T00:13:39.661Z,22.14
2023-03-28T00:16:09.359Z,21.78
2023-03-28T00:18:39.186Z,21.84
2023-03-28T00:21:10.087Z,22.02
2023-03-28T00:23:37.846Z,21.15
2023-03-28T00:26:08.777Z,21.82
2023-03-28T00:28:38.036Z,22.16
2023-03-28T00:31:06.966Z,21.50
2023-03-28T00:33:35.456Z,21.04
2023-03-28T00:36:03.519Z,20.99
2023-03-28T00:38:32.627Z,21.17
2023-03-28T00:41:01.032Z,21.36
2023-03-28T00:43:42.014Z,21.70
2023-03-28T00:46:16.305Z,21.43
2023-03-28T00:48:51.296Z,21.05
2023-03-28T00:51:21.911Z,21.03
2023-03-28T00:53:52.412Z,21.62
2023-03-28T00:56:24.899Z,20.27
2023-03-28T00:58:54.097Z,20.66
2023-03-28T01:01:22.023Z,20.80
2023-03-28T01:03:56.289Z,20.59
2023-03-28T01:06:26.027Z,20.79
2023-03-28T01:08:54.875Z,20.57
2023-03-28T01:11:24.638Z,20.60
2023-03-28T01:13:55.783Z,20.64
2023-03-28T01:16:23.813Z,20.69
2023-03-28T01:18:52.590Z,20.97
2023-03-28T01:21:40.716Z,21.15
2023-03-28T01:24:52.589Z,20.90
2023-03-28T01:27:29.251Z,20.91
2023-03-28T01:30:36.910Z,20.26
2023-03-28T01:33:36.091Z,20.42
2023-03-28T01:36:39.953Z,19.61
2023-03-28T01:39:17.510Z,20.00
2023-03-28T01:41:53.289Z,20.74
2023-03-28T01:44:32.015Z,20.80
2023-03-28T01:47:08.591Z,20.68
2023-03-28T01:49:43.262Z,20.17
2023-03-28T01:52:21.678Z,20.80
2023-03-28T01:54:58.432Z,20.61
2023-03-28T01:57:34.736Z,20.78
2023-03-28T02:00:12.698Z,20.21
2023-03-28T02:02:44.305Z,20.42
2023-03-28T02:05:16.311Z,19.94
2023-03-28T02:07:46.347Z,19.99
2023-03-28T02:10:18.244Z,20.17
2023-03-28T02:12:49.691Z,19.87
2023-03-28T02:15:21.688Z,19.76
2023-03-28T02:17:55.161Z,19.07
2023-03-28T02:20:25.035Z,19.05
2023-03-28T02:22:58.459Z,19.13
2023-03-28T02:25:28.014Z,18.99
2023-03-28T02:28:00.150Z,19.44
2023-03-28T02:30:28.435Z,19.56
2023-03-28T02:33:00.636Z,18.81
2023-03-28T02:35:35.952Z,19.05
2023-03-28T02:38:11.567Z,19.20
2023-03-28T02:40:53.363Z,18.91
2023-03-28T02:43:44.858Z,18.84
2023-03-28T02:46:29.930Z,19.26
2023-03-28T02:49:18.841Z,19.47
2023-03-28T02:51:56.945Z,19.36
2023-03-28T02:54:32.367Z,18.91
2023-03-28T02:57:10.338Z,19.17
2023-03-28T02:59:45.533Z,19.26
2023-03-28T03:02:17.830Z,19.19
2023-03-28T03:04:45.702Z,19.10
2023-03-28T03:07:13.801Z,19.58
2023-03-28T03:09:43.795Z,18.53
2023-03-28T03:12:14.832Z,18.15
2023-03-28T03:14:42.579Z,18.38
2023-03-28T03:17:10.816Z,18.12
2023-03-28T03:19:38.595Z,18.09
2023-03-28T03:22:06.290Z,18.35
2023-03-28T03:24:34.539Z,18.93
2023-03-28T03:27:02.233Z,18.71
2023-03-28T03:29:38.728Z,17.95
2023-03-28T03:32:07.629Z,19.22
2023-03-28T03:34:36.734Z,19.52
2023-03-28T03:37:04.959Z,19.55
2023-03-28T03:39:32.728Z,20.10
2023-03-28T03:42:00.406Z,19.68
2023-03-28T03:44:28.143Z,19.68
2023-03-28T03:46:57.538Z,19.69
2023-03-28T03:49:25.396Z,19.41
2023-03-28T03:51:53.451Z,18.68
2023-03-28T03:54:21.236Z,18.39
2023-03-28T03:56:49.517Z,19.41
2023-03-28T03:59:17.366Z,18.84
2023-03-28T04:01:45.178Z,19.52
2023-03-28T04:04:15.059Z,19.87
2023-03-28T04:06:42.818Z,20.24
2023-03-28T04:09:10.672Z,20.35
2023-03-28T04:11:38.435Z,19.78
2023-03-28T04:14:06.207Z,20.07
2023-03-28T04:16:40.895Z,20.16
2023-03-28T04:19:11.018Z,20.03
2023-03-28T04:21:42.462Z,20.11
2023-03-28T04:24:15.398Z,19.96
2023-03-28T04:26:43.309Z,19.28
2023-03-28T04:29:11.253Z,19.55
2023-03-28T04:31:40.052Z,19.46
2023-03-28T04:34:08.856Z,19.77
2023-03-28T04:36:37.673Z,20.11
2023-03-28T04:39:07.890Z,19.71
2023-03-28T04:41:35.679Z,19.22
2023-03-28T04:44:03.428Z,18.99
2023-03-28T04:46:31.160Z,19.41
2023-03-28T04:48:59.099Z,20.03
2023-03-28T04:51:28.691Z,20.10
2023-03-28T04:53:56.515Z,20.33
2023-03-28T04:56:25.757Z,20.34
2023-03-28T04:58:53.592Z,19.82
2023-03-28T05:01:22.529Z,20.16
2023-03-28T05:03:50.393Z,20.24
2023-03-28T05:06:18.199Z,19.23
2023-03-28T05:08:46.078Z,19.09
2023-03-28T05:11:13.848Z,18.48
2023-03-28T05:13:42.940Z,19.16
2023-03-28T05:16:10.695Z,18.86
2023-03-28T05:18:38.453Z,19.61
2023-03-28T05:21:06.580Z,19.20
2023-03-28T05:23:34.375Z,19.24
2023-03-28T05:26:02.581Z,19.02
2023-03-28T05:28:30.539Z,19.07
2023-03-28T05:30:59.823Z,19.33
2023-03-28T05:33:27.720Z,19.46
2023-03-28T05:35:55.474Z,19.34
2023-03-28T05:38:23.199Z,19.35
2023-03-28T05:40:50.997Z,18.76
2023-03-28T05:43:18.816Z,19.89
2023-03-28T05:45:48.088Z,19.31
2023-03-28T05:48:17.257Z,19.60
2023-03-28T05:50:46.000Z,19.72
2023-03-28T05:53:13.885Z,19.77
2023-03-28T05:55:42.539Z,19.79
2023-03-28T05:58:10.583Z,19.65
2023-03-28T06:00:38.833Z,19.82
2023-03-28T06:03:07.628Z,19.61
2023-03-28T06:05:37.390Z,19.78
2023-03-28T06:08:05.314Z,19.19
2023-03-28T06:10:33.090Z,19.73
2023-03-28T06:13:01.984Z,19.83
2023-03-28T06:15:29.871Z,20.10
2023-03-28T06:17:58.047Z,19.41
2023-03-28T06:20:25.816Z,20.03
2023-03-28T06:22:54.953Z,19.49
2023-03-28T06:25:22.730Z,19.61
2023-03-28T06:27:50.812Z,19.38
2023-03-28T06:30:18.719Z,20.07
2023-03-28T06:32:46.553Z,20.33
2023-03-28T06:35:14.380Z,20.19
2023-03-28T06:37:42.121Z,20.21
2023-03-28T06:40:11.973Z,19.72
2023-03-28T06:42:39.747Z,19.69
2023-03-28T06:45:08.648Z,20.18
2023-03-28T06:47:36.775Z,19.79
2023-03-28T06:50:05.019Z,18.40
2023-03-28T06:52:32.786Z,18.86
2023-03-28T06:55:00.708Z,19.75
2023-03-28T06:57:29.807Z,19.91
2023-03-28T06:59:57.548Z,19.79
2023-03-28T07:02:25.541Z,20.03
2023-03-28T07:04:53.350Z,20.23
2023-03-28T07:07:22.299Z,20.02
2023-03-28T07:09:51.857Z,20.04
2023-03-28T07:12:19.808Z,19.85
2023-03-28T07:14:48.882Z,19.61
2023-03-28T07:17:16.705Z,20.12
2023-03-28T07:19:45.399Z,19.95
2023-03-28T07:22:13.085Z,19.85
2023-03-28T07:24:40.799Z,19.30
2023-03-28T07:27:15.609Z,20.14
2023-03-28T07:29:44.708Z,19.98
2023-03-28T07:32:14.024Z,19.68
2023-03-28T07:34:41.799Z,19.31
2023-03-28T07:37:10.121Z,19.99
2023-03-28T07:39:39.896Z,19.69
2023-03-28T07:42:11.365Z,19.30
2023-03-28T07:44:41.806Z,20.19
2023-03-28T07:47:10.816Z,18.57
2023-03-28T07:49:41.038Z,19.30
2023-03-28T07:52:08.980Z,20.13
2023-03-28T07:54:37.363Z,20.06
2023-03-28T07:57:05.685Z,19.32
2023-03-28T07:59:33.641Z,20.32
2023-03-28T08:02:01.449Z,20.15
2023-03-28T08:04:29.199Z,20.41
2023-03-28T08:06:58.441Z,20.58
2023-03-28T08:09:26.292Z,20.04
2023-03-28T08:11:54.082Z,19.01
2023-03-28T08:14:21.767Z,18.93
2023-03-28T08:16:49.523Z,20.53
2023-03-28T08:19:17.962Z,20.59
2023-03-28T08:21:45.727Z,19.42
2023-03-28T08:24:22.296Z,19.96
2023-03-28T08:26:56.883Z,20.23
2023-03-28T08:29:24.818Z,19.03
2023-03-28T08:31:52.644Z,20.31
2023-03-28T08:34:20.784Z,19.87
2023-03-28T08:36:48.897Z,21.01
2023-03-28T08:39:19.126Z,19.93
2023-03-28T08:42:10.567Z,20.90
2023-03-28T08:45:04.536Z,19.79
2023-03-28T08:47:34.165Z,19.85
2023-03-28T08:50:09.235Z,20.58
2023-03-28T08:52:39.424Z,20.56
2023-03-28T08:55:28.040Z,20.37
2023-03-28T08:57:56.931Z,21.46
2023-03-28T09:00:29.337Z,20.69
2023-03-28T09:02:57.379Z,19.84
2023-03-28T09:05:34.604Z,19.41
2023-03-28T09:08:19.837Z,20.53
2023-03-28T09:10:53.726Z,18.90
2023-03-28T09:13:35.212Z,20.07
2023-03-28T09:16:16.704Z,20.56
2023-03-28T09:19:12.476Z,19.58
2023-03-28T09:22:04.947Z,19.60
2023-03-28T09:24:55.740Z,19.88
2023-03-28T09:27:28.799Z,19.44
2023-03-28T09:30:04.115Z,20.29
2023-03-28T09:32:38.078Z,20.24
2023-03-28T09:35:16.203Z,20.53
2023-03-28T09:37:47.740Z,20.57
2023-03-28T09:40:21.256Z,21.40
2023-03-28T09:43:05.076Z,21.34
2023-03-28T09:45:49.639Z,21.72
2023-03-28T09:48:22.674Z,21.09
2023-03-28T09:50:51.385Z,21.51
2023-03-28T09:53:26.161Z,20.81
2023-03-28T09:56:04.365Z,21.61
2023-03-28T09:58:50.364Z,22.32
2023-03-28T10:01:37.108Z,21.43
2023-03-28T10:04:12.307Z,22.26
2023-03-28T10:06:41.711Z,21.00
2023-03-28T10:09:20.058Z,21.83
2023-03-28T10:11:50.017Z,22.33
2023-03-28T10:14:34.233Z,22.21
2023-03-28T10:17:04.705Z,21.59
2023-03-28T10:19:36.038Z,22.41
2023-03-28T10:22:07.552Z,21.66
2023-03-28T10:24:37.148Z,22.41
2023-03-28T10:27:14.665Z,22.43
2023-03-28T10:29:44.245Z,22.62
2023-03-28T10:32:14.176Z,22.42
2023-03-28T10:34:41.966Z,22.66
2023-03-28T10:37:27.036Z,22.98
2023-03-28T10:40:05.112Z,23.05
2023-03-28T10:42:41.776Z,23.04
2023-03-28T10:45:21.697Z,22.88
2023-03-28T10:47:51.735Z,22.38
2023-03-28T10:50:37.763Z,23.27
2023-03-28T10:53:25.128Z,23.35
2023-03-28T10:56:15.257Z,23.01
2023-03-28T10:58:54.930Z,21.95
2023-03-28T11:01:26.743Z,22.58
2023-03-28T11:04:08.075Z,23.42
2023-03-28T11:06:45.774Z,22.57
2023-03-28T11:09:21.798Z,22.80
2023-03-28T11:12:04.113Z,22.74
2023-03-28T11:14:51.047Z,22.85
2023-03-28T11:17:30.280Z,23.34
2023-03-28T11:20:23.528Z,23.36
2023-03-28T11:23:06.734Z,23.13
2023-03-28T11:25:44.589Z,23.40
2023-03-28T11:28:23.822Z,22.57
2023-03-28T11:30:56.176Z,21.75
2023-03-28T11:33:28.834Z,22.95
2023-03-28T11:36:00.988Z,22.51
2023-03-28T11:38:33.508Z,22.87
2023-03-28T11:41:05.540Z,23.75
2023-03-28T11:43:38.655Z,22.66
2023-03-28T11:46:11.236Z,22.25
2023-03-28T11:48:46.759Z,22.87
2023-03-28T11:51:20.062Z,23.73
2023-03-28T11:53:50.417Z,23.33
2023-03-28T11:56:27.878Z,23.88
2023-03-28T11:59:04.034Z,23.73
2023-03-28T12:01:36.631Z,23.19
2023-03-28T12:04:11.507Z,23.78
2023-03-28T12:06:59.618Z,22.78
2023-03-28T12:09:37.190Z,23.04
2023-03-28T12:12:10.862Z,23.90
2023-03-28T12:14:50.779Z,23.77
2023-03-28T12:17:22.201Z,23.38
2023-03-28T12:19:51.007Z,23.95
2023-03-28T12:22:26.723Z,23.64
2023-03-28T12:25:00.407Z,23.35
2023-03-28T12:27:42.127Z,23.66
2023-03-28T12:30:22.551Z,24.18
2023-03-28T12:33:01.421Z,22.96
2023-03-28T12:35:39.726Z,22.92
2023-03-28T12:38:19.471Z,22.68
2023-03-28T12:40:56.010Z,23.58
2023-03-28T12:43:29.130Z,23.88
2023-03-28T12:46:02.399Z,24.62
2023-03-28T12:48:34.964Z,24.45
2023-03-28T12:51:08.190Z,24.91
2023-03-28T12:53:44.952Z,25.01
2023-03-28T12:56:16.192Z,25.02
2023-03-28T12:58:46.720Z,25.23
2023-03-28T13:01:34.993Z,25.60
2023-03-28T13:04:13.529Z,25.59
2023-03-28T13:06:48.756Z,26.13
2023-03-28T13:09:41.434Z,25.37
2023-03-28T13:12:32.358Z,24.73
2023-03-28T13:15:02.453Z,26.54
2023-03-28T13:17:35.019Z,27.05
2023-03-28T13:20:27.654Z,27.11
2023-03-28T13:23:00.501Z,26.85
2023-03-28T13:25:32.325Z,25.56
2023-03-28T13:28:02.388Z,26.78
2023-03-28T13:30:32.184Z,26.29
2023-03-28T13:33:04.031Z,25.56
2023-03-28T13:35:45.945Z,25.49
2023-03-28T13:38:36.690Z,25.23
2023-03-28T13:41:06.831Z,25.05
2023-03-28T13:43:43.609Z,25.98
2023-03-28T13:46:14.839Z,26.14
2023-03-28T13:48:50.817Z,26.82
2023-03-28T13:51:23.214Z,27.38
2023-03-28T13:53:51.658Z,27.41
2023-03-28T13:56:24.332Z,27.47
2023-03-28T13:58:55.266Z,26.78
2023-03-28T14:01:28.156Z,26.77
2023-03-28T14:03:57.437Z,27.25
2023-03-28T14:06:27.302Z,27.64
2023-03-28T14:08:59.343Z,26.66
2023-03-28T14:11:32.129Z,26.17
2023-03-28T14:14:08.797Z,26.71
2023-03-28T14:16:37.820Z,26.96
2023-03-28T14:19:08.599Z,26.91
2023-03-28T14:21:36.607Z,25.86
2023-03-28T14:24:07.010Z,26.89
2023-03-28T14:26:36.771Z,26.37
2023-03-28T14:29:07.056Z,26.87
2023-03-28T14:31:37.328Z,26.49
2023-03-28T14:34:18.242Z,26.32
2023-03-28T14:36:58.602Z,26.69
2023-03-28T14:39:27.624Z,27.27
2023-03-28T14:41:56.818Z,27.87
2023-03-28T14:44:25.010Z,27.28
2023-03-28T14:46:54.225Z,26.85
2023-03-28T14:49:26.312Z,26.76
2023-03-28T14:51:56.997Z,27.38
2023-03-28T14:54:29.648Z,26.23
2023-03-28T14:56:59.617Z,26.56
2023-03-28T14:59:37.849Z,28.20
2023-03-28T15:02:06.762Z,27.50
2023-03-28T15:04:36.975Z,27.70
2023-03-28T15:07:04.927Z,26.58
2023-03-28T15:09:34.810Z,26.67
2023-03-28T15:12:06.683Z,27.07
2023-03-28T15:14:41.172Z,26.51
2023-03-28T15:17:14.752Z,25.49
2023-03-28T15:19:46.496Z,25.81
2023-03-28T15:22:20.885Z,25.55
2023-03-28T15:24:49.021Z,26.03
2023-03-28T15:27:24.756Z,27.06
2023-03-28T15:29:52.864Z,27.16
2023-03-28T15:32:20.952Z,25.97
2023-03-28T15:34:57.708Z,25.51
2023-03-28T15:37:27.099Z,26.02
2023-03-28T15:39:55.603Z,25.75
2023-03-28T15:42:36.049Z,25.38
2023-03-28T15:45:25.604Z,26.00
2023-03-28T15:47:55.469Z,26.09
2023-03-28T15:50:33.076Z,25.36
2023-03-28T15:53:03.569Z,24.75
2023-03-28T15:55:32.319Z,24.68
2023-03-28T15:58:00.709Z,24.16
2023-03-28T16:00:44.612Z,24.71
2023-03-28T16:03:34.416Z,25.75
2023-03-28T16:06:23.030Z,26.06
2023-03-28T16:09:14.029Z,25.98
2023-03-28T16:11:42.371Z,24.85
2023-03-28T16:14:14.894Z,24.26
2023-03-28T16:16:42.750Z,24.47
2023-03-28T16:19:18.468Z,23.79
2023-03-28T16:21:47.741Z,25.29
2023-03-28T16:24:15.760Z,25.89
2023-03-28T16:26:43.763Z,24.17
2023-03-28T16:29:12.199Z,24.09
2023-03-28T16:31:40.498Z,23.80
2023-03-28T16:34:10.077Z,24.65
2023-03-28T16:36:38.277Z,25.89
2023-03-28T16:39:08.423Z,25.55
2023-03-28T16:41:37.101Z,24.72
2023-03-28T16:44:05.609Z,24.82
2023-03-28T16:46:33.464Z,22.98
2023-03-28T16:49:01.633Z,25.01
2023-03-28T16:51:29.429Z,24.38
2023-03-28T16:53:57.200Z,24.81
2023-03-28T16:56:27.481Z,23.68
2023-03-28T16:58:55.509Z,25.47
2023-03-28T17:01:23.679Z,24.98
2023-03-28T17:03:52.693Z,26.31
2023-03-28T17:06:20.665Z,25.10
2023-03-28T17:08:49.489Z,25.18
2023-03-28T17:11:17.551Z,25.12
2023-03-28T17:13:47.539Z,25.82
2023-03-28T17:16:15.372Z,25.60
2023-03-28T17:18:43.154Z,25.58
2023-03-28T17:21:13.136Z,25.38
2023-03-28T17:23:43.076Z,25.33
2023-03-28T17:26:12.154Z,25.41
2023-03-28T17:28:42.107Z,24.76
2023-03-28T17:31:14.695Z,25.82
2023-03-28T17:33:42.703Z,24.88
2023-03-28T17:36:19.663Z,26.07
2023-03-28T17:38:49.556Z,25.42
2023-03-28T17:41:17.544Z,24.71
2023-03-28T17:43:45.647Z,26.37
2023-03-28T17:46:14.835Z,26.77
2023-03-28T17:48:43.004Z,26.16
2023-03-28T17:51:11.698Z,26.58
2023-03-28T17:53:41.005Z,26.40
2023-03-28T17:56:09.730Z,26.38
2023-03-28T17:58:38.585Z,25.75
2023-03-28T18:01:10.490Z,23.14
2023-03-28T18:03:40.096Z,24.61
2023-03-28T18:06:08.968Z,24.51
2023-03-28T18:08:36.809Z,24.46
2023-03-28T18:11:07.431Z,24.29
2023-03-28T18:13:36.502Z,23.33
2023-03-28T18:16:05.406Z,24.46
2023-03-28T18:18:33.993Z,23.53
2023-03-28T18:21:04.251Z,23.11
2023-03-28T18:23:32.414Z,23.44
2023-03-28T18:26:00.743Z,23.89
2023-03-28T18:28:28.750Z,24.14
2023-03-28T18:30:58.076Z,22.36
2023-03-28T18:33:25.965Z,22.67
2023-03-28T18:35:53.759Z,23.06
2023-03-28T18:38:23.026Z,23.34
2023-03-28T18:40:53.261Z,22.79
2023-03-28T18:43:21.361Z,24.12
2023-03-28T18:45:54.599Z,24.19
2023-03-28T18:48:22.737Z,24.20
2023-03-28T18:50:50.968Z,24.09
2023-03-28T18:53:18.677Z,24.66
2023-03-28T18:55:47.778Z,24.09
2023-03-28T18:58:16.113Z,23.16
2023-03-28T19:00:43.946Z,24.19
2023-03-28T19:03:17.444Z,24.42
2023-03-28T19:05:45.690Z,23.89
2023-03-28T19:08:13.530Z,23.41
2023-03-28T19:10:47.316Z,24.39
2023-03-28T19:13:15.031Z,23.21
2023-03-28T19:15:43.189Z,23.40
2023-03-28T19:18:11.158Z,24.21
2023-03-28T19:20:39.272Z,24.39
2023-03-28T19:23:07.627Z,24.75
2023-03-28T19:25:35.417Z,23.85
2023-03-28T19:28:04.554Z,24.34
2023-03-28T19:30:32.386Z,23.49
2023-03-28T19:33:00.195Z,24.75
2023-03-28T19:35:27.954Z,25.28
2023-03-28T19:37:56.115Z,24.05
2023-03-28T19:40:25.824Z,24.12
2023-03-28T19:42:53.632Z,24.07
2023-03-28T19:45:22.707Z,24.00
2023-03-28T19:47:51.733Z,24.30
2023-03-28T19:50:20.268Z,22.57
2023-03-28T19:52:48.081Z,23.25
2023-03-28T19:55:16.193Z,24.20
2023-03-28T19:57:44.080Z,24.43
2023-03-28T20:00:12.453Z,24.58
2023-03-28T20:02:41.769Z,22.88
2023-03-28T20:05:10.435Z,23.51
2023-03-28T20:07:38.124Z,24.02
2023-03-28T20:10:07.412Z,23.87
2023-03-28T20:12:39.570Z,22.79
2023-03-28T20:15:08.901Z,23.28
2023-03-28T20:17:37.138Z,24.05
2023-03-28T20:20:08.150Z,23.67
2023-03-28T20:22:36.245Z,24.14
2023-03-28T20:25:04.272Z,23.54
2023-03-28T20:27:32.827Z,23.55
2023-03-28T20:30:00.819Z,23.84
2023-03-28T20:32:28.564Z,23.89
2023-03-28T20:34:56.711Z,23.92
2023-03-28T20:37:27.304Z,23.52
2023-03-28T20:39:55.169Z,24.40
2023-03-28T20:42:24.294Z,23.56
2023-03-28T20:44:52.053Z,23.36
2023-03-28T20:47:22.242Z,23.63
2023-03-28T20:49:56.248Z,23.99
2023-03-28T20:52:25.709Z,23.93
2023-03-28T20:54:53.389Z,23.37
2023-03-28T20:57:21.484Z,23.84
2023-03-28T20:59:49.280Z,24.13
2023-03-28T21:02:16.970Z,23.52
2023-03-28T21:04:44.733Z,24.27
2023-03-28T21:07:12.858Z,24.61
2023-03-28T21:09:42.283Z,24.66
2023-03-28T21:12:10.128Z,24.51
2023-03-28T21:14:37.839Z,24.77
2023-03-28T21:17:08.511Z,24.82
2023-03-28T21:19:36.378Z,24.89
2023-03-28T21:22:04.136Z,24.25
2023-03-28T21:24:31.994Z,24.62
2023-03-28T21:27:01.831Z,24.01
2023-03-28T21:29:30.138Z,24.50
2023-03-28T21:31:57.949Z,24.88
2023-03-28T21:34:30.653Z,24.76
2023-03-28T21:36:58.367Z,24.78
2023-03-28T21:39:27.064Z,24.78
2023-03-28T21:41:55.250Z,24.72
2023-03-28T21:44:25.128Z,24.01
2023-03-28T21:46:52.904Z,24.82
2023-03-28T21:49:20.808Z,24.70
2023-03-28T21:51:48.527Z,24.91
2023-03-28T21:54:16.438Z,24.13
2023-03-28T21:56:44.165Z,24.18
2023-03-28T21:59:11.962Z,24.49
2023-03-28T22:01:41.120Z,24.69
2023-03-28T22:04:08.871Z,24.93
2023-03-28T22:06:36.602Z,24.76
2023-03-28T22:09:04.987Z,24.55
2023-03-28T22:11:35.062Z,23.27
2023-03-28T22:14:04.659Z,23.61
2023-03-28T22:16:34.664Z,23.70
2023-03-28T22:19:04.306Z,23.16
2023-03-28T22:21:32.088Z,23.17
2023-03-28T22:24:02.503Z,24.05
2023-03-28T22:26:30.754Z,23.92
2023-03-28T22:28:59.628Z,24.54
2023-03-28T22:31:27.788Z,23.82
2023-03-28T22:33:55.857Z,24.40
2023-03-28T22:36:25.087Z,24.26
2023-03-28T22:38:54.694Z,24.42
2023-03-28T22:41:23.728Z,23.61
2023-03-28T22:43:51.460Z,24.18
2023-03-28T22:46:20.482Z,24.57
2023-03-28T22:48:54.429Z,23.88
2023-03-28T22:51:24.978Z,23.82
2023-03-28T22:53:54.837Z,24.18
2023-03-28T22:56:24.323Z,24.56
2023-03-28T22:58:53.911Z,24.53
2023-03-28T23:01:23.082Z,24.92
2023-03-28T23:03:51.975Z,24.64
2023-03-28T23:06:20.375Z,24.86
2023-03-28T23:08:48.283Z,25.09
2023-03-28T23:11:17.343Z,24.41
2023-03-28T23:13:45.087Z,23.94
2023-03-28T23:16:12.867Z,24.53
2023-03-28T23:18:40.580Z,24.50
2023-03-28T23:21:08.776Z,24.72
2023-03-28T23:23:36.875Z,23.28
2023-03-28T23:26:04.745Z,24.18
2023-03-28T23:28:33.952Z,24.33
2023-03-28T23:31:02.000Z,23.90
2023-03-28T23:33:29.855Z,23.93
2023-03-28T23:35:57.610Z,23.79
2023-03-28T23:38:25.468Z,24.54
2023-03-28T23:40:53.160Z,24.77
2023-03-28T23:43:21.410Z,24.05
2023-03-28T23:45:50.525Z,24.90
2023-03-28T23:48:18.374Z,25.09
2023-03-28T23:50:46.239Z,24.25
2023-03-28T23:53:13.990Z,24.64
2023-03-28T23:55:41.697Z,24.89
2023-03-28T23:58:09.535Z,24.95
